createdAt,value
2019-03-30T00:00:47.542Z,74.80
2019-03-30T00:03:17.193Z,75.00
2019-03-30T00:05:47.213Z,74.80
2019-03-30T00:08:16.963Z,74.60
2019-03-30T00:10:47.912Z,74.30
2019-03-30T00:13:17.578Z,74.40
2019-03-30T00:15:48.258Z,75.40
2019-03-30T00:18:18.987Z,75.80
2019-03-30T00:20:48.642Z,75.80
2019-03-30T00:23:18.306Z,76.40
2019-03-30T00:25:47.966Z,76.30
2019-03-30T00:28:17.640Z,75.80
2019-03-30T00:30:47.297Z,75.50
2019-03-30T00:33:17.035Z,75.60
2019-03-30T00:35:48.226Z,75.40
2019-03-30T00:38:17.884Z,75.90
2019-03-30T00:40:47.569Z,76.20
2019-03-30T00:43:17.230Z,76.20
2019-03-30T00:45:47.211Z,76.40
2019-03-30T00:48:16.957Z,76.40
2019-03-30T00:50:49.306Z,76.30
2019-03-30T00:53:18.909Z,76.20
2019-03-30T00:55:48.742Z,76.30
2019-03-30T00:58:18.483Z,76.40
2019-03-30T01:00:48.122Z,76.40
2019-03-30T01:03:17.845Z,77.60
2019-03-30T01:05:47.581Z,77.50
2019-03-30T01:08:17.250Z,77.40
2019-03-30T01:10:47.179Z,77.30
2019-03-30T01:13:16.830Z,77.10
2019-03-30T01:15:46.509Z,77.40
2019-03-30T01:18:16.163Z,77.60
2019-03-30T01:20:45.826Z,77.70
2019-03-30T01:23:16.990Z,77.60
2019-03-30T01:25:46.655Z,77.40
2019-03-30T01:28:16.311Z,77.50
2019-03-30T01:30:45.971Z,77.70
2019-03-30T01:33:15.625Z,77.50
2019-03-30T01:35:45.300Z,77.80
2019-03-30T01:38:14.956Z,78.10
2019-03-30T01:40:44.606Z,78.00
2019-03-30T01:43:14.270Z,79.10
2019-03-30T01:45:44.021Z,79.10
2019-03-30T01:48:13.698Z,79.00
2019-03-30T01:50:43.376Z,78.90
2019-03-30T01:53:13.094Z,78.90
2019-03-30T01:55:42.758Z,78.90
2019-03-30T01:58:12.419Z,78.70
2019-03-30T02:00:42.969Z,78.50
2019-03-30T02:03:12.621Z,78.70
2019-03-30T02:05:42.293Z,78.50
2019-03-30T02:08:12.038Z,78.90
2019-03-30T02:10:44.493Z,79.10
2019-03-30T02:13:14.401Z,79.20
2019-03-30T02:15:45.665Z,79.30
2019-03-30T02:18:15.329Z,79.20
2019-03-30T02:20:47.489Z,79.10
2019-03-30T02:23:17.198Z,79.30
2019-03-30T02:25:46.998Z,79.50
2019-03-30T02:28:16.734Z,79.30
2019-03-30T02:30:46.398Z,79.40
2019-03-30T02:33:16.054Z,79.70
2019-03-30T02:35:45.730Z,79.60
2019-03-30T02:38:15.374Z,80.30
2019-03-30T02:40:45.047Z,80.50
2019-03-30T02:43:14.709Z,80.00
2019-03-30T02:45:44.448Z,79.70
2019-03-30T02:48:14.109Z,79.50
2019-03-30T02:50:49.721Z,79.60
2019-03-30T02:53:15.153Z,80.10
2019-03-30T02:55:44.895Z,79.80
2019-03-30T02:58:14.546Z,80.20
2019-03-30T03:00:44.233Z,80.10
2019-03-30T03:03:15.453Z,80.30
2019-03-30T03:05:45.098Z,79.90
2019-03-30T03:08:16.284Z,80.40
2019-03-30T03:10:45.941Z,81.30
2019-03-30T03:13:15.595Z,80.90
2019-03-30T03:15:45.288Z,80.70
2019-03-30T03:18:14.959Z,80.70
2019-03-30T03:20:44.613Z,80.90
2019-03-30T03:23:15.814Z,81.10
2019-03-30T03:25:45.458Z,80.90
2019-03-30T03:28:15.117Z,81.00
2019-03-30T03:30:44.768Z,80.90
2019-03-30T03:33:14.431Z,80.90
2019-03-30T03:35:44.179Z,81.00
2019-03-30T03:38:13.839Z,81.20
2019-03-30T03:40:43.484Z,80.90
2019-03-30T03:43:13.149Z,81.20
2019-03-30T03:45:43.804Z,81.00
2019-03-30T03:48:13.451Z,81.90
2019-03-30T03:50:46.597Z,81.90
2019-03-30T03:53:17.784Z,82.70
2019-03-30T03:55:47.606Z,82.30
2019-03-30T03:58:18.126Z,82.30
2019-03-30T04:03:34.192Z,82.10
2019-03-30T04:06:07.143Z,82.10
2019-03-30T04:08:37.399Z,82.80
2019-03-30T04:11:10.441Z,83.80
2019-03-30T04:13:41.327Z,84.70
2019-03-30T04:16:10.996Z,84.30
2019-03-30T04:18:40.714Z,83.40
2019-03-30T04:21:10.397Z,83.50
2019-03-30T04:23:40.053Z,83.10
2019-03-30T04:26:09.768Z,82.80
2019-03-30T04:28:39.435Z,82.80
2019-03-30T04:31:09.090Z,83.00
2019-03-30T04:33:38.777Z,82.80
2019-03-30T04:36:08.513Z,83.60
2019-03-30T04:38:38.244Z,84.30
2019-03-30T04:41:07.931Z,84.00
2019-03-30T04:43:37.787Z,83.80
2019-03-30T04:46:07.540Z,84.00
2019-03-30T04:48:37.146Z,84.30
2019-03-30T04:51:06.800Z,84.20
2019-03-30T04:53:36.467Z,84.10
2019-03-30T04:56:06.136Z,83.70
2019-03-30T04:58:35.916Z,83.80
2019-03-30T05:01:05.739Z,84.10
2019-03-30T05:03:35.509Z,84.10
2019-03-30T05:06:05.288Z,84.00
2019-03-30T05:08:35.013Z,84.30
2019-03-30T05:11:04.687Z,84.30
2019-03-30T05:13:34.511Z,84.30
2019-03-30T05:16:04.185Z,84.10
2019-03-30T05:18:33.841Z,83.90
2019-03-30T05:21:03.587Z,84.20
2019-03-30T05:23:33.240Z,84.30
2019-03-30T05:26:03.263Z,84.60
2019-03-30T05:28:34.472Z,84.30
2019-03-30T05:31:04.392Z,83.60
2019-03-30T05:33:34.041Z,84.50
2019-03-30T05:36:05.211Z,85.50
2019-03-30T05:38:34.933Z,86.70
2019-03-30T05:41:04.602Z,86.60
2019-03-30T05:43:34.253Z,86.40
2019-03-30T05:46:03.925Z,86.50
2019-03-30T05:48:33.580Z,85.90
2019-03-30T05:51:03.241Z,85.60
2019-03-30T05:53:32.908Z,85.20
2019-03-30T05:56:02.950Z,85.10
2019-03-30T05:58:32.693Z,84.50
2019-03-30T06:01:02.423Z,84.10
2019-03-30T06:03:32.271Z,83.70
2019-03-30T06:06:01.939Z,84.10
2019-03-30T06:08:31.619Z,83.90
2019-03-30T06:11:01.307Z,84.10
2019-03-30T06:13:30.961Z,84.20
2019-03-30T06:16:00.633Z,84.30
2019-03-30T06:18:30.299Z,84.50
2019-03-30T06:20:59.960Z,84.00
2019-03-30T06:23:29.631Z,83.70
2019-03-30T06:25:59.314Z,83.70
2019-03-30T06:28:28.969Z,84.30
2019-03-30T06:30:58.636Z,83.90
2019-03-30T06:33:28.295Z,83.30
2019-03-30T06:35:57.961Z,83.40
2019-03-30T06:38:27.648Z,83.60
2019-03-30T06:40:57.352Z,83.50
2019-03-30T06:43:34.004Z,83.60
2019-03-30T06:46:03.661Z,83.30
2019-03-30T06:48:36.265Z,83.30
2019-03-30T06:51:06.030Z,83.80
2019-03-30T06:53:35.668Z,83.90
2019-03-30T06:56:05.434Z,83.80
2019-03-30T06:58:35.104Z,83.80
2019-03-30T07:01:05.513Z,84.10
2019-03-30T07:03:35.628Z,84.00
2019-03-30T07:06:05.910Z,83.80
2019-03-30T07:08:37.612Z,84.00
2019-03-30T07:11:20.583Z,83.60
2019-03-30T07:13:42.129Z,83.70
2019-03-30T07:16:11.837Z,84.00
2019-03-30T07:18:43.704Z,83.60
2019-03-30T07:21:14.170Z,82.70
2019-03-30T07:23:43.841Z,82.60
2019-03-30T07:26:13.531Z,82.90
2019-03-30T07:28:47.096Z,82.90
2019-03-30T07:31:16.150Z,83.30
2019-03-30T07:33:45.793Z,83.10
2019-03-30T07:36:15.472Z,82.80
2019-03-30T07:38:45.163Z,82.20
2019-03-30T07:41:14.952Z,82.00
2019-03-30T07:43:44.639Z,82.30
2019-03-30T07:46:19.568Z,82.00
2019-03-30T07:48:48.465Z,82.00
2019-03-30T07:51:18.142Z,81.80
2019-03-30T07:53:47.847Z,81.30
2019-03-30T07:56:19.163Z,81.30
2019-03-30T07:58:48.884Z,81.30
2019-03-30T08:01:20.234Z,81.30
2019-03-30T08:03:51.563Z,80.80
2019-03-30T08:06:21.307Z,80.80
2019-03-30T08:08:51.317Z,80.30
2019-03-30T08:11:20.984Z,80.30
2019-03-30T08:13:50.662Z,80.10
2019-03-30T08:16:21.091Z,79.70
2019-03-30T08:18:50.755Z,79.80
2019-03-30T08:21:20.541Z,79.60
2019-03-30T08:23:50.302Z,79.20
2019-03-30T08:26:21.806Z,79.10
2019-03-30T08:28:51.464Z,78.90
2019-03-30T08:31:21.140Z,79.30
2019-03-30T08:33:50.928Z,78.60
2019-03-30T08:36:20.667Z,78.50
2019-03-30T08:38:50.399Z,78.20
2019-03-30T08:41:20.066Z,78.10
2019-03-30T08:43:49.769Z,77.70
2019-03-30T08:46:20.509Z,77.60
2019-03-30T08:48:50.189Z,77.20
2019-03-30T08:51:21.454Z,76.80
2019-03-30T08:53:54.900Z,76.60
2019-03-30T08:56:22.576Z,76.70
2019-03-30T08:58:52.318Z,76.20
2019-03-30T09:01:21.997Z,75.50
2019-03-30T09:03:51.654Z,75.60
2019-03-30T09:06:22.379Z,75.40
2019-03-30T09:08:52.099Z,74.90
2019-03-30T09:11:21.804Z,75.00
2019-03-30T09:13:51.611Z,74.50
2019-03-30T09:16:21.412Z,74.10
2019-03-30T09:18:51.155Z,73.60
2019-03-30T09:21:20.905Z,73.60
2019-03-30T09:23:50.568Z,73.90
2019-03-30T09:26:20.306Z,73.50
2019-03-30T09:28:51.115Z,73.20
2019-03-30T09:31:20.768Z,73.40
2019-03-30T09:33:50.439Z,73.70
2019-03-30T09:36:20.181Z,73.00
2019-03-30T09:38:49.875Z,72.90
2019-03-30T09:41:19.553Z,72.70
2019-03-30T09:43:49.280Z,73.00
2019-03-30T09:46:18.940Z,73.20
2019-03-30T09:48:48.599Z,73.10
2019-03-30T09:51:18.282Z,72.70
2019-03-30T09:53:48.084Z,72.50
2019-03-30T09:56:17.763Z,72.10
2019-03-30T09:58:47.418Z,71.00
2019-03-30T10:01:17.152Z,70.60
2019-03-30T10:03:46.807Z,70.30
2019-03-30T10:06:16.513Z,69.70
2019-03-30T10:08:46.163Z,69.60
2019-03-30T10:11:15.831Z,68.90
2019-03-30T10:13:45.515Z,68.30
2019-03-30T10:16:15.296Z,68.10
2019-03-30T10:18:44.995Z,67.70
2019-03-30T10:21:14.657Z,67.20
2019-03-30T10:23:44.629Z,67.10
2019-03-30T10:26:14.314Z,66.60
2019-03-30T10:28:47.279Z,66.80
2019-03-30T10:31:16.950Z,65.70
2019-03-30T10:33:46.636Z,66.30
2019-03-30T10:36:17.698Z,65.60
2019-03-30T10:38:47.380Z,65.70
2019-03-30T10:41:17.047Z,66.00
2019-03-30T10:43:46.701Z,65.40
2019-03-30T10:46:16.470Z,65.50
2019-03-30T10:48:46.153Z,64.90
2019-03-30T10:51:15.977Z,64.40
2019-03-30T10:53:45.711Z,63.90
2019-03-30T10:56:15.407Z,63.60
2019-03-30T10:58:46.013Z,63.90
2019-03-30T11:01:17.478Z,63.00
2019-03-30T11:03:47.171Z,62.60
2019-03-30T11:06:16.847Z,62.50
2019-03-30T11:08:46.519Z,63.10
2019-03-30T11:11:16.187Z,63.10
2019-03-30T11:13:45.858Z,62.70
2019-03-30T11:16:15.511Z,62.50
2019-03-30T11:18:45.499Z,62.20
2019-03-30T11:21:15.366Z,62.00
2019-03-30T11:23:45.103Z,61.90
2019-03-30T11:26:14.761Z,61.30
2019-03-30T11:28:44.524Z,60.80
2019-03-30T11:31:14.173Z,60.80
2019-03-30T11:33:43.909Z,60.80
2019-03-30T11:36:13.742Z,60.90
2019-03-30T11:38:43.410Z,60.70
2019-03-30T11:41:13.064Z,60.80
2019-03-30T11:43:42.799Z,60.50
2019-03-30T11:46:12.468Z,60.50
2019-03-30T11:48:42.245Z,60.30
2019-03-30T11:51:11.970Z,60.20
2019-03-30T11:53:41.741Z,59.90
2019-03-30T11:56:11.468Z,59.10
2019-03-30T11:58:41.147Z,58.70
2019-03-30T12:01:10.963Z,59.00
2019-03-30T12:03:40.691Z,59.10
2019-03-30T12:06:10.435Z,58.50
2019-03-30T12:08:40.090Z,58.50
2019-03-30T12:11:09.867Z,57.50
2019-03-30T12:13:39.723Z,56.50
2019-03-30T12:16:09.491Z,56.00
2019-03-30T12:18:39.253Z,55.70
2019-03-30T12:21:08.907Z,55.00
2019-03-30T12:23:38.848Z,54.70
2019-03-30T12:26:08.511Z,54.90
2019-03-30T12:28:38.178Z,54.60
2019-03-30T12:31:07.873Z,54.10
2019-03-30T12:33:38.832Z,53.30
2019-03-30T12:36:08.660Z,53.30
2019-03-30T12:38:38.482Z,53.40
2019-03-30T12:41:08.223Z,53.90
2019-03-30T12:43:39.137Z,52.30
2019-03-30T12:46:09.017Z,51.90
2019-03-30T12:48:38.671Z,50.90
2019-03-30T12:51:09.534Z,50.70
2019-03-30T12:53:49.613Z,50.70
2019-03-30T12:56:10.596Z,49.60
2019-03-30T12:58:40.266Z,46.90
2019-03-30T13:01:10.230Z,44.90
2019-03-30T13:03:39.928Z,46.50
2019-03-30T13:06:09.662Z,48.40
2019-03-30T13:08:39.393Z,47.30
2019-03-30T13:11:09.189Z,44.60
2019-03-30T13:13:38.798Z,45.60
2019-03-30T13:16:08.562Z,43.20
2019-03-30T13:18:38.222Z,43.10
2019-03-30T13:21:07.875Z,44.50
2019-03-30T13:23:37.539Z,45.00
2019-03-30T13:26:07.282Z,44.60
2019-03-30T13:28:36.937Z,41.90
2019-03-30T13:31:06.584Z,42.50
2019-03-30T13:33:36.261Z,42.80
2019-03-30T13:36:10.535Z,43.20
2019-03-30T13:38:39.546Z,44.10
2019-03-30T13:41:09.336Z,44.70
2019-03-30T13:43:39.080Z,44.70
2019-03-30T13:46:08.787Z,43.60
2019-03-30T13:48:38.547Z,42.60
2019-03-30T13:51:08.201Z,42.80
2019-03-30T13:53:37.867Z,42.60
2019-03-30T13:56:17.078Z,42.70
2019-03-30T13:58:39.149Z,42.30
2019-03-30T14:01:08.809Z,41.10
2019-03-30T14:03:38.480Z,41.20
2019-03-30T14:06:09.141Z,40.60
2019-03-30T14:08:43.216Z,39.40
2019-03-30T14:11:13.902Z,38.50
2019-03-30T14:13:43.574Z,37.60
2019-03-30T14:16:15.544Z,37.90
2019-03-30T14:18:45.299Z,37.80
2019-03-30T14:21:14.955Z,36.80
2019-03-30T14:23:44.639Z,36.80
2019-03-30T14:26:14.295Z,36.60
2019-03-30T14:28:43.995Z,36.00
2019-03-30T14:31:13.609Z,35.70
2019-03-30T14:33:43.308Z,34.10
2019-03-30T14:36:12.980Z,32.70
2019-03-30T14:38:42.782Z,31.40
2019-03-30T14:41:12.467Z,30.80
2019-03-30T14:43:45.298Z,28.70
2019-03-30T14:46:15.533Z,27.60
2019-03-30T14:48:45.770Z,27.50
2019-03-30T14:51:16.025Z,26.30
2019-03-30T14:53:45.970Z,25.30
2019-03-30T14:56:15.907Z,25.70
2019-03-30T14:58:45.863Z,24.80
2019-03-30T15:01:17.343Z,23.70
2019-03-30T15:03:47.293Z,23.30
2019-03-30T15:06:20.301Z,23.30
2019-03-30T15:08:51.044Z,22.20
2019-03-30T15:11:20.961Z,22.70
2019-03-30T15:13:50.891Z,21.70
2019-03-30T15:16:20.882Z,21.70
2019-03-30T15:18:50.808Z,23.20
2019-03-30T15:21:20.826Z,22.80
2019-03-30T15:23:50.765Z,22.00
2019-03-30T15:26:22.626Z,22.50
2019-03-30T15:28:54.111Z,22.40
2019-03-30T15:31:25.042Z,21.40
2019-03-30T15:33:54.965Z,20.70
2019-03-30T15:36:24.907Z,20.70
2019-03-30T15:38:54.838Z,21.00
2019-03-30T15:41:24.777Z,20.90
2019-03-30T15:43:54.717Z,22.90
2019-03-30T15:46:24.811Z,21.90
2019-03-30T15:48:54.743Z,22.10
2019-03-30T15:51:24.680Z,22.70
2019-03-30T15:53:54.644Z,21.90
2019-03-30T15:56:24.665Z,21.80
2019-03-30T15:58:54.588Z,23.20
2019-03-30T16:01:24.535Z,22.70
2019-03-30T16:03:56.002Z,22.50
2019-03-30T16:06:26.024Z,22.30
2019-03-30T16:08:55.962Z,23.40
2019-03-30T16:11:25.917Z,23.20
2019-03-30T16:13:55.830Z,24.00
2019-03-30T16:16:25.856Z,25.50
2019-03-30T16:18:57.018Z,24.40
2019-03-30T16:21:26.939Z,23.80
2019-03-30T16:23:57.916Z,25.00
2019-03-30T16:26:41.393Z,25.30
2019-03-30T16:28:59.565Z,25.00
2019-03-30T16:31:29.537Z,25.40
2019-03-30T16:33:59.567Z,26.40
2019-03-30T16:36:29.535Z,27.30
2019-03-30T16:38:59.534Z,26.80
2019-03-30T16:41:29.790Z,28.10
2019-03-30T16:44:00.028Z,29.50
2019-03-30T16:46:30.287Z,31.20
2019-03-30T16:49:00.527Z,32.60
2019-03-30T16:51:30.275Z,33.90
2019-03-30T16:53:59.929Z,34.60
2019-03-30T16:56:29.593Z,35.10
2019-03-30T16:58:59.247Z,35.60
2019-03-30T17:01:28.913Z,35.80
2019-03-30T17:03:58.579Z,36.40
2019-03-30T17:06:28.231Z,37.10
2019-03-30T17:08:57.896Z,37.40
2019-03-30T17:11:29.083Z,37.70
2019-03-30T17:13:58.750Z,37.90
2019-03-30T17:16:28.463Z,38.40
2019-03-30T17:18:58.131Z,38.70
2019-03-30T17:21:27.875Z,39.50
2019-03-30T17:23:57.537Z,39.60
2019-03-30T17:26:28.420Z,39.70
2019-03-30T17:28:58.088Z,40.20
2019-03-30T17:31:27.741Z,40.30
2019-03-30T17:33:57.430Z,40.90
2019-03-30T17:36:27.093Z,41.00
2019-03-30T17:38:56.784Z,41.30
2019-03-30T17:41:26.578Z,41.60
2019-03-30T17:43:56.247Z,41.70
2019-03-30T17:46:25.979Z,41.70
2019-03-30T17:48:55.633Z,42.60
2019-03-30T17:51:25.297Z,42.80
2019-03-30T17:53:55.030Z,43.50
2019-03-30T17:56:24.748Z,43.80
2019-03-30T17:58:54.362Z,44.00
2019-03-30T18:01:25.614Z,44.70
2019-03-30T18:03:55.273Z,44.20
2019-03-30T18:06:24.945Z,44.60
2019-03-30T18:08:55.945Z,45.00
2019-03-30T18:11:25.701Z,45.10
2019-03-30T18:13:56.333Z,45.70
2019-03-30T18:16:26.018Z,45.80
2019-03-30T18:18:57.041Z,46.00
2019-03-30T18:21:26.779Z,46.30
2019-03-30T18:23:56.459Z,46.30
2019-03-30T18:26:27.055Z,46.40
2019-03-30T18:28:58.916Z,46.50
2019-03-30T18:31:28.587Z,46.90
2019-03-30T18:33:58.382Z,47.10
2019-03-30T18:36:29.548Z,47.40
2019-03-30T18:39:09.518Z,47.30
2019-03-30T18:41:31.292Z,47.70
2019-03-30T18:44:02.401Z,48.20
2019-03-30T18:46:33.713Z,48.60
2019-03-30T18:49:03.384Z,49.20
2019-03-30T18:51:33.280Z,49.50
2019-03-30T18:54:03.661Z,49.80
2019-03-30T18:56:33.323Z,49.90
2019-03-30T18:59:02.982Z,50.70
2019-03-30T19:01:32.649Z,51.10
2019-03-30T19:04:02.317Z,51.40
2019-03-30T19:06:31.971Z,51.70
2019-03-30T19:09:01.640Z,51.80
2019-03-30T19:11:31.548Z,52.00
2019-03-30T19:14:01.222Z,52.20
2019-03-30T19:16:33.934Z,52.40
2019-03-30T19:19:03.593Z,52.80
2019-03-30T19:21:33.270Z,53.00
2019-03-30T19:24:02.938Z,54.10
2019-03-30T19:26:34.143Z,54.90
2019-03-30T19:29:03.878Z,55.00
2019-03-30T19:31:33.563Z,55.60
2019-03-30T19:34:03.230Z,55.10
2019-03-30T19:36:32.961Z,54.90
2019-03-30T19:39:02.944Z,55.10
2019-03-30T19:41:32.681Z,54.80
2019-03-30T19:44:02.349Z,55.30
2019-03-30T19:46:32.577Z,55.70
2019-03-30T19:49:02.272Z,55.90
2019-03-30T19:51:33.149Z,56.00
2019-03-30T19:54:02.905Z,56.30
2019-03-30T19:56:34.042Z,56.20
2019-03-30T19:59:10.652Z,56.50
2019-03-30T20:01:35.108Z,56.90
2019-03-30T20:04:07.721Z,56.90
2019-03-30T20:06:36.278Z,57.30
2019-03-30T20:09:10.454Z,57.40
2019-03-30T20:11:40.122Z,57.70
2019-03-30T20:14:09.772Z,57.90
2019-03-30T20:16:42.238Z,57.90
2019-03-30T20:19:13.285Z,57.80
2019-03-30T20:21:42.954Z,57.80
2019-03-30T20:24:12.625Z,57.80
2019-03-30T20:26:42.283Z,57.80
2019-03-30T20:29:24.690Z,58.30
2019-03-30T20:31:43.317Z,58.20
2019-03-30T20:34:12.987Z,58.20
2019-03-30T20:36:42.677Z,58.60
2019-03-30T20:39:12.339Z,58.30
2019-03-30T20:41:42.199Z,58.50
2019-03-30T20:44:11.853Z,58.70
2019-03-30T20:46:43.746Z,59.20
2019-03-30T20:49:15.460Z,58.90
2019-03-30T20:51:45.120Z,59.20
2019-03-30T20:54:14.795Z,59.20
2019-03-30T20:56:45.799Z,59.10
2019-03-30T20:59:15.449Z,59.10
2019-03-30T21:01:45.105Z,59.10
2019-03-30T21:04:14.788Z,59.40
2019-03-30T21:06:46.919Z,59.50
2019-03-30T21:09:16.598Z,59.70
2019-03-30T21:11:46.255Z,59.90
2019-03-30T21:14:15.959Z,60.10
2019-03-30T21:16:45.903Z,60.30
2019-03-30T21:19:15.564Z,60.40
2019-03-30T21:21:45.319Z,60.30
2019-03-30T21:24:14.976Z,60.40
2019-03-30T21:26:44.678Z,60.50
2019-03-30T21:29:14.329Z,60.70
2019-03-30T21:31:43.993Z,61.00
2019-03-30T21:34:14.607Z,61.20
2019-03-30T21:36:45.839Z,60.80
2019-03-30T21:39:16.594Z,61.00
2019-03-30T21:41:46.254Z,61.00
2019-03-30T21:44:21.756Z,61.20
2019-03-30T21:46:47.374Z,61.20
2019-03-30T21:49:17.046Z,61.20
2019-03-30T21:51:46.712Z,61.30
2019-03-30T21:54:16.436Z,61.40
2019-03-30T21:56:46.119Z,61.40
2019-03-30T21:59:15.852Z,61.90
2019-03-30T22:01:45.508Z,61.80
2019-03-30T22:04:15.190Z,63.10
2019-03-30T22:06:44.837Z,63.30
2019-03-30T22:09:14.562Z,64.50
2019-03-30T22:11:44.298Z,64.30
2019-03-30T22:14:13.967Z,63.70
2019-03-30T22:16:43.710Z,64.20
2019-03-30T22:19:13.351Z,63.50
2019-03-30T22:21:43.015Z,63.60
2019-03-30T22:24:12.679Z,63.80
2019-03-30T22:26:42.332Z,63.50
2019-03-30T22:29:11.996Z,63.40
2019-03-30T22:31:42.787Z,64.10
2019-03-30T22:34:12.438Z,64.20
2019-03-30T22:36:42.113Z,63.80
2019-03-30T22:39:11.763Z,63.70
2019-03-30T22:41:41.429Z,63.40
2019-03-30T22:44:11.099Z,63.50
2019-03-30T22:46:40.752Z,63.20
2019-03-30T22:49:10.404Z,63.60
2019-03-30T22:51:40.056Z,64.00
2019-03-30T22:54:09.727Z,63.80
2019-03-30T22:56:39.380Z,63.80
2019-03-30T22:59:09.047Z,63.90
2019-03-30T23:01:38.777Z,64.00
2019-03-30T23:04:08.521Z,64.10
2019-03-30T23:06:38.212Z,64.00
2019-03-30T23:09:11.256Z,64.00
2019-03-30T23:11:39.451Z,64.20
2019-03-30T23:14:09.119Z,64.30
2019-03-30T23:16:38.772Z,64.20
2019-03-30T23:19:08.439Z,64.30
2019-03-30T23:21:38.091Z,64.60
2019-03-30T23:24:08.880Z,64.60
2019-03-30T23:26:38.534Z,64.90
2019-03-30T23:29:08.204Z,65.90
2019-03-30T23:31:37.869Z,66.20
2019-03-30T23:34:09.060Z,66.10
2019-03-30T23:36:38.727Z,65.50
2019-03-30T23:39:09.605Z,65.40
2019-03-30T23:41:39.271Z,65.40
2019-03-30T23:44:08.935Z,65.30
2019-03-30T23:46:38.601Z,65.70
2019-03-30T23:49:08.263Z,65.50
2019-03-30T23:51:38.008Z,65.90
2019-03-30T23:54:11.710Z,65.80
2019-03-30T23:56:41.487Z,65.70
2019-03-30T23:59:11.157Z,65.60
